sensor_id;sensor_type;location;lat;lon;timestamp;temperature;humidity
16823;DHT22;8528;49.976;11.858;2022-11-23T00:01:24;5.90;99.90
16823;DHT22;8528;49.976;11.858;2022-11-23T00:03:53;5.90;99.90
16823;DHT22;8528;49.976;11.858;2022-11-23T00:06:22;5.90;99.90
16823;DHT22;8528;49.976;11.858;2022-11-23T00:08:50;5.90;99.90
16823;DHT22;8528;49.976;11.858;2022-11-23T00:11:19;5.90;99.90
16823;DHT22;8528;49.976;11.858;2022-11-23T00:13:47;5.90;99.90
16823;DHT22;8528;49.976;11.858;2022-11-23T00:16:20;5.90;99.90
16823;DHT22;8528;49.976;11.858;2022-11-23T00:18:52;5.90;99.90
16823;DHT22;8528;49.976;11.858;2022-11-23T00:21:20;6.00;99.90
16823;DHT22;8528;49.976;11.858;2022-11-23T00:23:47;5.90;99.90
16823;DHT22;8528;49.976;11.858;2022-11-23T00:26:16;5.90;99.90
16823;DHT22;8528;49.976;11.858;2022-11-23T00:28:43;5.90;99.90
16823;DHT22;8528;49.976;11.858;2022-11-23T00:31:15;5.90;99.90
16823;DHT22;8528;49.976;11.858;2022-11-23T00:33:51;5.90;99.90
16823;DHT22;8528;49.976;11.858;2022-11-23T00:36:20;6.00;99.90
16823;DHT22;8528;49.976;11.858;2022-11-23T00:38:48;6.00;99.90
16823;DHT22;8528;49.976;11.858;2022-11-23T00:41:17;5.90;99.90
16823;DHT22;8528;49.976;11.858;2022-11-23T00:43:45;6.00;99.90
16823;DHT22;8528;49.976;11.858;2022-11-23T00:46:15;5.90;99.90
16823;DHT22;8528;49.976;11.858;2022-11-23T00:48:43;6.00;99.90
16823;DHT22;8528;49.976;11.858;2022-11-23T00:51:13;6.00;99.90
16823;DHT22;8528;49.976;11.858;2022-11-23T00:53:41;6.00;99.90
16823;DHT22;8528;49.976;11.858;2022-11-23T00:56:12;6.00;99.90
16823;DHT22;8528;49.976;11.858;2022-11-23T00:58:39;6.00;99.90
16823;DHT22;8528;49.976;11.858;2022-11-23T01:01:09;6.00;99.90
16823;DHT22;8528;49.976;11.858;2022-11-23T01:03:45;6.00;99.90
16823;DHT22;8528;49.976;11.858;2022-11-23T01:06:47;6.00;99.90
16823;DHT22;8528;49.976;11.858;2022-11-23T01:09:17;6.00;99.90
16823;DHT22;8528;49.976;11.858;2022-11-23T01:11:55;6.00;99.90
16823;DHT22;8528;49.976;11.858;2022-11-23T01:14:22;6.00;99.90
16823;DHT22;8528;49.976;11.858;2022-11-23T01:16:50;6.00;99.90
16823;DHT22;8528;49.976;11.858;2022-11-23T01:19:21;6.00;99.90
16823;DHT22;8528;49.976;11.858;2022-11-23T01:21:49;6.00;99.90
16823;DHT22;8528;49.976;11.858;2022-11-23T01:24:24;6.00;99.90
16823;DHT22;8528;49.976;11.858;2022-11-23T01:26:53;6.00;99.90
16823;DHT22;8528;49.976;11.858;2022-11-23T01:29:21;6.00;99.90
16823;DHT22;8528;49.976;11.858;2022-11-23T01:31:48;6.00;99.90
16823;DHT22;8528;49.976;11.858;2022-11-23T01:34:16;6.00;99.90
16823;DHT22;8528;49.976;11.858;2022-11-23T01:36:43;6.00;99.90
16823;DHT22;8528;49.976;11.858;2022-11-23T01:39:11;6.00;99.90
16823;DHT22;8528;49.976;11.858;2022-11-23T01:41:40;6.00;99.90
16823;DHT22;8528;49.976;11.858;2022-11-23T01:44:40;6.00;99.90
16823;DHT22;8528;49.976;11.858;2022-11-23T01:47:08;6.00;99.90
16823;DHT22;8528;49.976;11.858;2022-11-23T01:49:43;6.00;99.90
16823;DHT22;8528;49.976;11.858;2022-11-23T01:52:15;6.00;99.90
16823;DHT22;8528;49.976;11.858;2022-11-23T01:54:47;6.00;99.90
16823;DHT22;8528;49.976;11.858;2022-11-23T01:57:34;6.00;99.90
16823;DHT22;8528;49.976;11.858;2022-11-23T02:00:03;6.00;99.90
16823;DHT22;8528;49.976;11.858;2022-11-23T02:02:30;6.00;99.90
16823;DHT22;8528;49.976;11.858;2022-11-23T02:05:00;6.00;99.90
16823;DHT22;8528;49.976;11.858;2022-11-23T02:07:28;6.00;99.90
16823;DHT22;8528;49.976;11.858;2022-11-23T02:09:56;6.00;99.90
16823;DHT22;8528;49.976;11.858;2022-11-23T02:12:23;6.00;99.90
16823;DHT22;8528;49.976;11.858;2022-11-23T02:14:50;6.00;99.90
16823;DHT22;8528;49.976;11.858;2022-11-23T02:17:17;6.00;99.90
16823;DHT22;8528;49.976;11.858;2022-11-23T02:20:13;6.00;99.90
16823;DHT22;8528;49.976;11.858;2022-11-23T02:22:57;6.00;99.90
16823;DHT22;8528;49.976;11.858;2022-11-23T02:28:17;6.00;99.90
16823;DHT22;8528;49.976;11.858;2022-11-23T02:30:47;6.00;99.90
16823;DHT22;8528;49.976;11.858;2022-11-23T02:33:15;6.00;99.90
16823;DHT22;8528;49.976;11.858;2022-11-23T02:35:57;6.00;99.90
16823;DHT22;8528;49.976;11.858;2022-11-23T02:38:27;6.00;99.90
16823;DHT22;8528;49.976;11.858;2022-11-23T02:40:55;6.00;99.90
16823;DHT22;8528;49.976;11.858;2022-11-23T02:43:22;6.00;99.90
16823;DHT22;8528;49.976;11.858;2022-11-23T02:46:00;6.00;99.90
16823;DHT22;8528;49.976;11.858;2022-11-23T02:48:28;6.00;99.90
16823;DHT22;8528;49.976;11.858;2022-11-23T02:50:55;6.00;99.90
16823;DHT22;8528;49.976;11.858;2022-11-23T02:53:22;6.00;99.90
16823;DHT22;8528;49.976;11.858;2022-11-23T02:55:51;6.00;99.90
16823;DHT22;8528;49.976;11.858;2022-11-23T02:58:18;6.00;99.90
16823;DHT22;8528;49.976;11.858;2022-11-23T03:00:45;6.00;99.90
16823;DHT22;8528;49.976;11.858;2022-11-23T03:03:11;6.00;99.90
16823;DHT22;8528;49.976;11.858;2022-11-23T03:05:38;6.00;99.90
16823;DHT22;8528;49.976;11.858;2022-11-23T03:08:05;6.00;99.90
16823;DHT22;8528;49.976;11.858;2022-11-23T03:10:32;6.00;99.90
16823;DHT22;8528;49.976;11.858;2022-11-23T03:12:59;6.00;99.90
16823;DHT22;8528;49.976;11.858;2022-11-23T03:15:26;6.00;99.90
16823;DHT22;8528;49.976;11.858;2022-11-23T03:17:57;6.00;99.90
16823;DHT22;8528;49.976;11.858;2022-11-23T03:20:26;6.00;99.90
16823;DHT22;8528;49.976;11.858;2022-11-23T03:22:55;6.00;99.90
16823;DHT22;8528;49.976;11.858;2022-11-23T03:25:24;6.00;99.90
16823;DHT22;8528;49.976;11.858;2022-11-23T03:27:50;6.00;99.90
16823;DHT22;8528;49.976;11.858;2022-11-23T03:30:17;6.00;99.90
16823;DHT22;8528;49.976;11.858;2022-11-23T03:32:44;6.00;99.90
16823;DHT22;8528;49.976;11.858;2022-11-23T03:35:11;6.00;99.90
16823;DHT22;8528;49.976;11.858;2022-11-23T03:37:38;6.00;99.90
16823;DHT22;8528;49.976;11.858;2022-11-23T03:40:05;6.00;99.90
16823;DHT22;8528;49.976;11.858;2022-11-23T03:42:32;6.00;99.90
16823;DHT22;8528;49.976;11.858;2022-11-23T03:44:59;6.00;99.90
16823;DHT22;8528;49.976;11.858;2022-11-23T03:47:26;6.00;99.90
16823;DHT22;8528;49.976;11.858;2022-11-23T03:49:53;6.00;99.90
16823;DHT22;8528;49.976;11.858;2022-11-23T03:52:19;6.00;99.90
16823;DHT22;8528;49.976;11.858;2022-11-23T03:54:46;6.00;99.90
16823;DHT22;8528;49.976;11.858;2022-11-23T03:57:13;6.00;99.90
16823;DHT22;8528;49.976;11.858;2022-11-23T03:59:40;6.00;99.90
16823;DHT22;8528;49.976;11.858;2022-11-23T04:02:07;6.00;99.90
16823;DHT22;8528;49.976;11.858;2022-11-23T04:04:34;6.00;99.90
16823;DHT22;8528;49.976;11.858;2022-11-23T04:07:01;6.00;99.90
16823;DHT22;8528;49.976;11.858;2022-11-23T04:09:28;6.00;99.90
16823;DHT22;8528;49.976;11.858;2022-11-23T04:11:56;6.00;99.90
16823;DHT22;8528;49.976;11.858;2022-11-23T04:14:23;6.00;99.90
16823;DHT22;8528;49.976;11.858;2022-11-23T04:16:50;6.00;99.90
16823;DHT22;8528;49.976;11.858;2022-11-23T04:19:17;6.00;99.90
16823;DHT22;8528;49.976;11.858;2022-11-23T04:21:46;5.90;99.90
16823;DHT22;8528;49.976;11.858;2022-11-23T04:24:15;5.90;99.90
16823;DHT22;8528;49.976;11.858;2022-11-23T04:26:42;5.90;99.90
16823;DHT22;8528;49.976;11.858;2022-11-23T04:29:09;5.90;99.90
16823;DHT22;8528;49.976;11.858;2022-11-23T04:31:36;5.90;99.90
16823;DHT22;8528;49.976;11.858;2022-11-23T04:34:03;5.90;99.90
16823;DHT22;8528;49.976;11.858;2022-11-23T04:36:30;5.90;99.90
16823;DHT22;8528;49.976;11.858;2022-11-23T04:38:57;5.90;99.90
16823;DHT22;8528;49.976;11.858;2022-11-23T04:41:24;5.90;99.90
16823;DHT22;8528;49.976;11.858;2022-11-23T04:43:51;5.90;99.90
16823;DHT22;8528;49.976;11.858;2022-11-23T04:46:18;5.90;99.90
16823;DHT22;8528;49.976;11.858;2022-11-23T04:48:45;5.90;99.90
16823;DHT22;8528;49.976;11.858;2022-11-23T04:51:12;5.90;99.90
16823;DHT22;8528;49.976;11.858;2022-11-23T04:53:39;5.90;99.90
16823;DHT22;8528;49.976;11.858;2022-11-23T04:56:06;5.90;99.90
16823;DHT22;8528;49.976;11.858;2022-11-23T04:58:33;5.90;99.90
16823;DHT22;8528;49.976;11.858;2022-11-23T05:01:02;5.90;99.90
16823;DHT22;8528;49.976;11.858;2022-11-23T05:03:29;5.80;99.90
16823;DHT22;8528;49.976;11.858;2022-11-23T05:05:57;5.80;99.90
16823;DHT22;8528;49.976;11.858;2022-11-23T05:08:24;5.90;99.90
16823;DHT22;8528;49.976;11.858;2022-11-23T05:10:51;5.80;99.90
16823;DHT22;8528;49.976;11.858;2022-11-23T05:13:18;5.80;99.90
16823;DHT22;8528;49.976;11.858;2022-11-23T05:15:45;5.80;99.90
16823;DHT22;8528;49.976;11.858;2022-11-23T05:18:12;5.80;99.90
16823;DHT22;8528;49.976;11.858;2022-11-23T05:20:39;5.80;99.90
16823;DHT22;8528;49.976;11.858;2022-11-23T05:23:06;5.90;99.90
16823;DHT22;8528;49.976;11.858;2022-11-23T05:25:33;5.80;99.90
16823;DHT22;8528;49.976;11.858;2022-11-23T05:28:00;5.80;99.90
16823;DHT22;8528;49.976;11.858;2022-11-23T05:30:47;5.80;99.90
16823;DHT22;8528;49.976;11.858;2022-11-23T05:33:14;5.80;99.90
16823;DHT22;8528;49.976;11.858;2022-11-23T05:35:41;5.80;99.90
16823;DHT22;8528;49.976;11.858;2022-11-23T05:38:07;5.80;99.90
16823;DHT22;8528;49.976;11.858;2022-11-23T05:40:34;5.80;99.90
16823;DHT22;8528;49.976;11.858;2022-11-23T05:43:01;5.80;99.90
16823;DHT22;8528;49.976;11.858;2022-11-23T05:45:28;5.80;99.90
16823;DHT22;8528;49.976;11.858;2022-11-23T05:47:56;5.90;99.90
16823;DHT22;8528;49.976;11.858;2022-11-23T05:50:25;5.90;99.90
16823;DHT22;8528;49.976;11.858;2022-11-23T05:52:55;5.80;99.90
16823;DHT22;8528;49.976;11.858;2022-11-23T05:55:22;5.80;99.90
16823;DHT22;8528;49.976;11.858;2022-11-23T05:57:49;5.80;99.90
16823;DHT22;8528;49.976;11.858;2022-11-23T06:00:16;5.80;99.90
16823;DHT22;8528;49.976;11.858;2022-11-23T06:02:43;5.90;99.90
16823;DHT22;8528;49.976;11.858;2022-11-23T06:05:10;5.80;99.90
16823;DHT22;8528;49.976;11.858;2022-11-23T06:07:37;5.80;99.90
16823;DHT22;8528;49.976;11.858;2022-11-23T06:10:05;5.80;99.90
16823;DHT22;8528;49.976;11.858;2022-11-23T06:12:32;5.80;99.90
16823;DHT22;8528;49.976;11.858;2022-11-23T06:14:59;5.80;99.90
16823;DHT22;8528;49.976;11.858;2022-11-23T06:17:26;5.80;99.90
16823;DHT22;8528;49.976;11.858;2022-11-23T06:19:53;5.80;99.90
16823;DHT22;8528;49.976;11.858;2022-11-23T06:22:20;5.80;99.90
16823;DHT22;8528;49.976;11.858;2022-11-23T06:24:46;5.80;99.90
16823;DHT22;8528;49.976;11.858;2022-11-23T06:27:13;5.80;99.90
16823;DHT22;8528;49.976;11.858;2022-11-23T06:29:44;5.80;99.90
16823;DHT22;8528;49.976;11.858;2022-11-23T06:32:12;5.80;99.90
16823;DHT22;8528;49.976;11.858;2022-11-23T06:34:39;5.80;99.90
16823;DHT22;8528;49.976;11.858;2022-11-23T06:37:06;5.80;99.90
16823;DHT22;8528;49.976;11.858;2022-11-23T06:39:32;5.80;99.90
16823;DHT22;8528;49.976;11.858;2022-11-23T06:42:00;5.80;99.90
16823;DHT22;8528;49.976;11.858;2022-11-23T06:44:47;5.80;99.90
16823;DHT22;8528;49.976;11.858;2022-11-23T06:47:14;5.80;99.90
16823;DHT22;8528;49.976;11.858;2022-11-23T06:49:45;5.80;99.90
16823;DHT22;8528;49.976;11.858;2022-11-23T06:52:14;5.80;99.90
16823;DHT22;8528;49.976;11.858;2022-11-23T06:54:41;5.80;99.90
16823;DHT22;8528;49.976;11.858;2022-11-23T06:57:08;5.80;99.90
16823;DHT22;8528;49.976;11.858;2022-11-23T06:59:35;5.80;99.90
16823;DHT22;8528;49.976;11.858;2022-11-23T07:02:10;5.80;99.90
16823;DHT22;8528;49.976;11.858;2022-11-23T07:04:37;5.80;99.90
16823;DHT22;8528;49.976;11.858;2022-11-23T07:07:06;5.80;99.90
16823;DHT22;8528;49.976;11.858;2022-11-23T07:09:33;5.80;99.90
16823;DHT22;8528;49.976;11.858;2022-11-23T07:12:00;5.80;99.90
16823;DHT22;8528;49.976;11.858;2022-11-23T07:14:30;5.80;99.90
16823;DHT22;8528;49.976;11.858;2022-11-23T07:16:58;5.80;99.90
16823;DHT22;8528;49.976;11.858;2022-11-23T07:19:25;5.80;99.90
16823;DHT22;8528;49.976;11.858;2022-11-23T07:21:52;5.80;99.90
16823;DHT22;8528;49.976;11.858;2022-11-23T07:24:20;5.80;99.90
16823;DHT22;8528;49.976;11.858;2022-11-23T07:26:48;5.80;99.90
16823;DHT22;8528;49.976;11.858;2022-11-23T07:29:25;5.80;99.90
16823;DHT22;8528;49.976;11.858;2022-11-23T07:31:51;5.80;99.90
16823;DHT22;8528;49.976;11.858;2022-11-23T07:34:18;5.80;99.90
16823;DHT22;8528;49.976;11.858;2022-11-23T07:36:45;5.80;99.90
16823;DHT22;8528;49.976;11.858;2022-11-23T07:39:12;5.80;99.90
16823;DHT22;8528;49.976;11.858;2022-11-23T07:41:39;5.80;99.90
16823;DHT22;8528;49.976;11.858;2022-11-23T07:44:06;5.90;99.90
16823;DHT22;8528;49.976;11.858;2022-11-23T07:46:33;5.80;99.90
16823;DHT22;8528;49.976;11.858;2022-11-23T07:49:00;5.80;99.90
16823;DHT22;8528;49.976;11.858;2022-11-23T07:51:28;5.80;99.90
16823;DHT22;8528;49.976;11.858;2022-11-23T07:53:55;5.90;99.90
16823;DHT22;8528;49.976;11.858;2022-11-23T07:56:23;5.80;99.90
16823;DHT22;8528;49.976;11.858;2022-11-23T07:58:50;5.80;99.90
16823;DHT22;8528;49.976;11.858;2022-11-23T08:01:18;5.80;99.90
16823;DHT22;8528;49.976;11.858;2022-11-23T08:03:47;5.90;99.90
16823;DHT22;8528;49.976;11.858;2022-11-23T08:06:15;5.80;99.90
16823;DHT22;8528;49.976;11.858;2022-11-23T08:08:42;5.80;99.90
16823;DHT22;8528;49.976;11.858;2022-11-23T08:11:09;5.90;99.90
16823;DHT22;8528;49.976;11.858;2022-11-23T08:13:41;5.90;99.90
16823;DHT22;8528;49.976;11.858;2022-11-23T08:16:08;5.90;99.90
16823;DHT22;8528;49.976;11.858;2022-11-23T08:18:35;5.90;99.90
16823;DHT22;8528;49.976;11.858;2022-11-23T08:21:02;5.90;99.90
16823;DHT22;8528;49.976;11.858;2022-11-23T08:23:29;5.90;99.90
16823;DHT22;8528;49.976;11.858;2022-11-23T08:25:56;5.90;99.90
16823;DHT22;8528;49.976;11.858;2022-11-23T08:28:25;5.90;99.90
16823;DHT22;8528;49.976;11.858;2022-11-23T08:30:52;5.90;99.90
16823;DHT22;8528;49.976;11.858;2022-11-23T08:33:21;5.90;99.90
16823;DHT22;8528;49.976;11.858;2022-11-23T08:35:48;5.90;99.90
16823;DHT22;8528;49.976;11.858;2022-11-23T08:38:15;5.90;99.90
16823;DHT22;8528;49.976;11.858;2022-11-23T08:40:41;5.90;99.90
16823;DHT22;8528;49.976;11.858;2022-11-23T08:43:08;5.90;99.90
16823;DHT22;8528;49.976;11.858;2022-11-23T08:45:35;6.00;99.90
16823;DHT22;8528;49.976;11.858;2022-11-23T08:48:02;6.00;99.90
16823;DHT22;8528;49.976;11.858;2022-11-23T08:50:31;6.00;99.90
16823;DHT22;8528;49.976;11.858;2022-11-23T08:53:00;6.00;99.90
16823;DHT22;8528;49.976;11.858;2022-11-23T08:55:27;6.00;99.90
16823;DHT22;8528;49.976;11.858;2022-11-23T08:57:58;6.00;99.90
16823;DHT22;8528;49.976;11.858;2022-11-23T09:00:26;6.00;99.90
16823;DHT22;8528;49.976;11.858;2022-11-23T09:02:53;6.10;99.90
16823;DHT22;8528;49.976;11.858;2022-11-23T09:05:20;6.10;99.90
16823;DHT22;8528;49.976;11.858;2022-11-23T09:07:47;6.10;99.90
16823;DHT22;8528;49.976;11.858;2022-11-23T09:10:14;6.10;99.90
16823;DHT22;8528;49.976;11.858;2022-11-23T09:12:45;6.10;99.90
16823;DHT22;8528;49.976;11.858;2022-11-23T09:15:13;6.20;99.90
16823;DHT22;8528;49.976;11.858;2022-11-23T09:17:40;6.20;99.90
16823;DHT22;8528;49.976;11.858;2022-11-23T09:20:08;6.20;99.90
16823;DHT22;8528;49.976;11.858;2022-11-23T09:22:37;6.20;99.90
16823;DHT22;8528;49.976;11.858;2022-11-23T09:25:04;6.20;99.90
16823;DHT22;8528;49.976;11.858;2022-11-23T09:27:33;6.30;99.90
16823;DHT22;8528;49.976;11.858;2022-11-23T09:30:02;6.30;99.90
16823;DHT22;8528;49.976;11.858;2022-11-23T09:32:31;6.30;99.90
16823;DHT22;8528;49.976;11.858;2022-11-23T09:34:58;6.30;99.90
16823;DHT22;8528;49.976;11.858;2022-11-23T09:37:24;6.30;99.90
16823;DHT22;8528;49.976;11.858;2022-11-23T09:39:51;6.40;99.90
16823;DHT22;8528;49.976;11.858;2022-11-23T09:45:48;6.40;99.90
16823;DHT22;8528;49.976;11.858;2022-11-23T09:51:15;6.40;99.90
16823;DHT22;8528;49.976;11.858;2022-11-23T09:54:03;6.50;99.90
16823;DHT22;8528;49.976;11.858;2022-11-23T09:56:36;6.50;99.90
16823;DHT22;8528;49.976;11.858;2022-11-23T09:59:35;6.50;99.90
16823;DHT22;8528;49.976;11.858;2022-11-23T10:02:02;6.50;99.90
16823;DHT22;8528;49.976;11.858;2022-11-23T10:04:33;6.60;99.90
16823;DHT22;8528;49.976;11.858;2022-11-23T10:07:30;6.60;99.90
16823;DHT22;8528;49.976;11.858;2022-11-23T10:15:50;6.60;99.90
16823;DHT22;8528;49.976;11.858;2022-11-23T10:26:37;6.70;99.90
16823;DHT22;8528;49.976;11.858;2022-11-23T10:31:57;6.80;99.90
16823;DHT22;8528;49.976;11.858;2022-11-23T10:34:50;6.80;99.90
16823;DHT22;8528;49.976;11.858;2022-11-23T10:37:22;6.80;99.90
16823;DHT22;8528;49.976;11.858;2022-11-23T10:39:49;6.80;99.90
16823;DHT22;8528;49.976;11.858;2022-11-23T10:42:23;6.80;99.90
16823;DHT22;8528;49.976;11.858;2022-11-23T10:44:52;6.80;99.90
16823;DHT22;8528;49.976;11.858;2022-11-23T10:47:40;6.90;99.90
16823;DHT22;8528;49.976;11.858;2022-11-23T10:50:25;6.90;99.90
16823;DHT22;8528;49.976;11.858;2022-11-23T10:53:20;6.90;99.90
16823;DHT22;8528;49.976;11.858;2022-11-23T10:55:51;6.90;99.90
16823;DHT22;8528;49.976;11.858;2022-11-23T10:58:44;7.00;99.90
16823;DHT22;8528;49.976;11.858;2022-11-23T11:01:18;7.00;99.90
16823;DHT22;8528;49.976;11.858;2022-11-23T11:03:45;7.00;99.90
16823;DHT22;8528;49.976;11.858;2022-11-23T11:06:21;7.00;99.90
16823;DHT22;8528;49.976;11.858;2022-11-23T11:08:56;7.10;99.90
16823;DHT22;8528;49.976;11.858;2022-11-23T11:11:38;7.10;99.90
16823;DHT22;8528;49.976;11.858;2022-11-23T11:16:47;7.20;99.90
16823;DHT22;8528;49.976;11.858;2022-11-23T11:19:32;7.20;99.90
16823;DHT22;8528;49.976;11.858;2022-11-23T11:22:03;7.30;99.90
16823;DHT22;8528;49.976;11.858;2022-11-23T11:24:36;7.30;99.90
16823;DHT22;8528;49.976;11.858;2022-11-23T11:27:10;7.30;99.90
16823;DHT22;8528;49.976;11.858;2022-11-23T11:29:47;7.30;99.90
16823;DHT22;8528;49.976;11.858;2022-11-23T11:32:21;7.40;99.90
16823;DHT22;8528;49.976;11.858;2022-11-23T11:37:43;7.50;99.90
16823;DHT22;8528;49.976;11.858;2022-11-23T11:42:55;7.60;99.90
16823;DHT22;8528;49.976;11.858;2022-11-23T11:45:44;7.60;99.90
16823;DHT22;8528;49.976;11.858;2022-11-23T11:48:47;7.60;99.90
16823;DHT22;8528;49.976;11.858;2022-11-23T11:51:24;7.70;99.90
16823;DHT22;8528;49.976;11.858;2022-11-23T11:59:34;7.80;99.90
16823;DHT22;8528;49.976;11.858;2022-11-23T12:02:22;7.90;99.90
16823;DHT22;8528;49.976;11.858;2022-11-23T12:08:09;8.00;99.90
16823;DHT22;8528;49.976;11.858;2022-11-23T12:10:58;8.00;99.90
16823;DHT22;8528;49.976;11.858;2022-11-23T12:13:34;8.10;99.90
16823;DHT22;8528;49.976;11.858;2022-11-23T12:25:12;8.30;99.90
16823;DHT22;8528;49.976;11.858;2022-11-23T12:34:03;8.40;99.90
16823;DHT22;8528;49.976;11.858;2022-11-23T12:36:40;8.50;99.90
16823;DHT22;8528;49.976;11.858;2022-11-23T12:45:12;8.70;99.90
16823;DHT22;8528;49.976;11.858;2022-11-23T12:50:19;8.80;99.90
16823;DHT22;8528;49.976;11.858;2022-11-23T12:58:46;8.90;99.90
16823;DHT22;8528;49.976;11.858;2022-11-23T13:01:31;9.00;99.90
16823;DHT22;8528;49.976;11.858;2022-11-23T13:09:56;9.20;99.90
16823;DHT22;8528;49.976;11.858;2022-11-23T13:18:58;9.30;99.90
16823;DHT22;8528;49.976;11.858;2022-11-23T13:21:42;9.30;99.90
16823;DHT22;8528;49.976;11.858;2022-11-23T13:40:30;9.60;99.90
16823;DHT22;8528;49.976;11.858;2022-11-23T13:43:16;9.60;99.90
16823;DHT22;8528;49.976;11.858;2022-11-23T13:45:44;9.60;99.90
16823;DHT22;8528;49.976;11.858;2022-11-23T13:48:14;9.70;99.90
16823;DHT22;8528;49.976;11.858;2022-11-23T13:51:05;9.70;99.90
16823;DHT22;8528;49.976;11.858;2022-11-23T13:53:40;9.70;99.90
16823;DHT22;8528;49.976;11.858;2022-11-23T14:04:36;9.70;99.90
16823;DHT22;8528;49.976;11.858;2022-11-23T14:07:23;9.70;99.90
16823;DHT22;8528;49.976;11.858;2022-11-23T14:12:56;9.70;99.90
16823;DHT22;8528;49.976;11.858;2022-11-23T14:15:31;9.80;99.90
16823;DHT22;8528;49.976;11.858;2022-11-23T14:20:58;9.80;99.90
16823;DHT22;8528;49.976;11.858;2022-11-23T14:34:37;9.70;99.90
16823;DHT22;8528;49.976;11.858;2022-11-23T14:37:34;9.70;99.90
16823;DHT22;8528;49.976;11.858;2022-11-23T14:40:28;9.70;99.90
16823;DHT22;8528;49.976;11.858;2022-11-23T14:42:56;9.70;99.90
16823;DHT22;8528;49.976;11.858;2022-11-23T14:45:28;9.70;99.90
16823;DHT22;8528;49.976;11.858;2022-11-23T14:47:57;9.70;99.90
16823;DHT22;8528;49.976;11.858;2022-11-23T14:50:26;9.60;99.90
16823;DHT22;8528;49.976;11.858;2022-11-23T14:52:56;9.70;99.90
16823;DHT22;8528;49.976;11.858;2022-11-23T14:55:27;9.60;99.90
16823;DHT22;8528;49.976;11.858;2022-11-23T14:58:00;9.60;99.90
16823;DHT22;8528;49.976;11.858;2022-11-23T15:00:37;9.60;99.90
16823;DHT22;8528;49.976;11.858;2022-11-23T15:03:18;9.60;99.90
16823;DHT22;8528;49.976;11.858;2022-11-23T15:06:29;9.60;99.90
16823;DHT22;8528;49.976;11.858;2022-11-23T15:11:41;9.50;99.90
16823;DHT22;8528;49.976;11.858;2022-11-23T15:14:24;9.50;99.90
16823;DHT22;8528;49.976;11.858;2022-11-23T15:16:51;9.50;99.90
16823;DHT22;8528;49.976;11.858;2022-11-23T15:19:28;9.40;99.90
16823;DHT22;8528;49.976;11.858;2022-11-23T15:21:56;9.40;99.90
16823;DHT22;8528;49.976;11.858;2022-11-23T15:24:24;9.40;99.90
16823;DHT22;8528;49.976;11.858;2022-11-23T15:26:56;9.40;99.90
16823;DHT22;8528;49.976;11.858;2022-11-23T15:29:37;9.40;99.90
16823;DHT22;8528;49.976;11.858;2022-11-23T15:32:25;9.30;99.90
16823;DHT22;8528;49.976;11.858;2022-11-23T15:35:04;9.30;99.90
16823;DHT22;8528;49.976;11.858;2022-11-23T15:37:41;9.30;99.90
16823;DHT22;8528;49.976;11.858;2022-11-23T15:40:15;9.20;99.90
16823;DHT22;8528;49.976;11.858;2022-11-23T15:42:44;9.20;99.90
16823;DHT22;8528;49.976;11.858;2022-11-23T15:50:49;9.10;99.90
16823;DHT22;8528;49.976;11.858;2022-11-23T15:53:19;9.10;99.90
16823;DHT22;8528;49.976;11.858;2022-11-23T15:55:46;9.10;99.90
16823;DHT22;8528;49.976;11.858;2022-11-23T15:58:16;9.10;99.90
16823;DHT22;8528;49.976;11.858;2022-11-23T16:00:51;9.10;99.90
16823;DHT22;8528;49.976;11.858;2022-11-23T16:03:27;9.00;99.90
16823;DHT22;8528;49.976;11.858;2022-11-23T16:08:40;9.00;99.90
16823;DHT22;8528;49.976;11.858;2022-11-23T16:11:26;8.90;99.90
16823;DHT22;8528;49.976;11.858;2022-11-23T16:16:40;8.90;99.90
16823;DHT22;8528;49.976;11.858;2022-11-23T16:19:21;8.90;99.90
16823;DHT22;8528;49.976;11.858;2022-11-23T16:21:53;8.90;99.90
16823;DHT22;8528;49.976;11.858;2022-11-23T16:24:28;8.80;99.90
16823;DHT22;8528;49.976;11.858;2022-11-23T16:26:55;8.80;99.90
16823;DHT22;8528;49.976;11.858;2022-11-23T16:29:32;8.80;99.90
16823;DHT22;8528;49.976;11.858;2022-11-23T16:32:01;8.80;99.90
16823;DHT22;8528;49.976;11.858;2022-11-23T16:34:29;8.70;99.90
16823;DHT22;8528;49.976;11.858;2022-11-23T16:36:56;8.70;99.90
16823;DHT22;8528;49.976;11.858;2022-11-23T16:39:25;8.70;99.90
16823;DHT22;8528;49.976;11.858;2022-11-23T16:41:53;8.60;99.90
16823;DHT22;8528;49.976;11.858;2022-11-23T16:44:20;8.60;99.90
16823;DHT22;8528;49.976;11.858;2022-11-23T16:46:47;8.60;99.90
16823;DHT22;8528;49.976;11.858;2022-11-23T16:49:34;8.60;99.90
16823;DHT22;8528;49.976;11.858;2022-11-23T16:52:01;8.60;99.90
16823;DHT22;8528;49.976;11.858;2022-11-23T16:54:30;8.60;99.90
16823;DHT22;8528;49.976;11.858;2022-11-23T16:57:00;8.50;99.90
16823;DHT22;8528;49.976;11.858;2022-11-23T16:59:27;8.50;99.90
16823;DHT22;8528;49.976;11.858;2022-11-23T17:01:53;8.50;99.90
16823;DHT22;8528;49.976;11.858;2022-11-23T17:04:24;8.50;99.90
16823;DHT22;8528;49.976;11.858;2022-11-23T17:06:51;8.40;99.90
16823;DHT22;8528;49.976;11.858;2022-11-23T17:09:18;8.40;99.90
16823;DHT22;8528;49.976;11.858;2022-11-23T17:11:46;8.40;99.90
16823;DHT22;8528;49.976;11.858;2022-11-23T17:14:14;8.40;99.90
16823;DHT22;8528;49.976;11.858;2022-11-23T17:16:45;8.40;99.90
16823;DHT22;8528;49.976;11.858;2022-11-23T17:19:14;8.30;99.90
16823;DHT22;8528;49.976;11.858;2022-11-23T17:21:42;8.30;99.90
16823;DHT22;8528;49.976;11.858;2022-11-23T17:24:09;8.30;99.90
16823;DHT22;8528;49.976;11.858;2022-11-23T17:26:40;8.30;99.90
16823;DHT22;8528;49.976;11.858;2022-11-23T17:29:17;8.30;99.90
16823;DHT22;8528;49.976;11.858;2022-11-23T17:31:49;8.30;99.90
16823;DHT22;8528;49.976;11.858;2022-11-23T17:34:16;8.20;99.90
16823;DHT22;8528;49.976;11.858;2022-11-23T17:36:45;8.30;99.90
16823;DHT22;8528;49.976;11.858;2022-11-23T17:39:22;8.20;99.90
16823;DHT22;8528;49.976;11.858;2022-11-23T17:41:50;8.20;99.90
16823;DHT22;8528;49.976;11.858;2022-11-23T17:44:17;8.20;99.90
16823;DHT22;8528;49.976;11.858;2022-11-23T17:46:44;8.20;99.90
16823;DHT22;8528;49.976;11.858;2022-11-23T17:49:14;8.20;99.90
16823;DHT22;8528;49.976;11.858;2022-11-23T17:51:43;8.20;99.90
16823;DHT22;8528;49.976;11.858;2022-11-23T17:54:10;8.10;99.90
16823;DHT22;8528;49.976;11.858;2022-11-23T17:56:39;8.20;99.90
16823;DHT22;8528;49.976;11.858;2022-11-23T17:59:07;8.10;99.90
16823;DHT22;8528;49.976;11.858;2022-11-23T18:01:34;8.20;99.90
16823;DHT22;8528;49.976;11.858;2022-11-23T18:04:02;8.10;99.90
16823;DHT22;8528;49.976;11.858;2022-11-23T18:06:30;8.10;99.90
16823;DHT22;8528;49.976;11.858;2022-11-23T18:08:57;8.10;99.90
16823;DHT22;8528;49.976;11.858;2022-11-23T18:11:24;8.10;99.90
16823;DHT22;8528;49.976;11.858;2022-11-23T18:13:51;8.10;99.90
16823;DHT22;8528;49.976;11.858;2022-11-23T18:16:20;8.10;99.90
16823;DHT22;8528;49.976;11.858;2022-11-23T18:18:47;8.10;99.90
16823;DHT22;8528;49.976;11.858;2022-11-23T18:21:15;8.10;99.90
16823;DHT22;8528;49.976;11.858;2022-11-23T18:23:43;8.10;99.90
16823;DHT22;8528;49.976;11.858;2022-11-23T18:26:26;8.10;99.90
16823;DHT22;8528;49.976;11.858;2022-11-23T18:28:55;8.00;99.90